Main page
METAR-TAF:

METAR-TAF

Airports :

Pécs-Pogány International Airport

Pécs, Hungary

latitude: 46-06N, longitude: 018-14E, elevation: 201 m

Current weather observation

The report was made 37 minutes ago, at 07:27 UTC
Calm wind
Temperature 0°C
Humidity 93%
Pressure 1017 hPa
Visibility: 6000 m

METAR: LHPP 200727Z 00000KT 6000 NSC M00/M01 Q1017

Time: 09:04 (08:04 UTC)

Forecast

The report was made 2 hours and 49 minutes ago, at 05:15 UTC
Forecast valid from 20 at 06 UTC to 20 at 15 UTC
Wind 2 kt from variable directions
Visibility: 6000 m
Scattered clouds at a height of 2000 ft
Broken clouds at a height of 8000 ft
Temporary
from 20 at 06 UTC to 20 at 13 UTC
Visibility: 3000 m
Broken clouds at a height of 700 ft
Broken clouds at a height of 2000 ft
light snow
Becoming
from 20 at 10 UTC to 20 at 13 UTC
Wind 7 kt from the North/Northwest

TAF: LHPP 200515Z 2006/2015 VRB02KT 6000 SCT020 BKN080 TEMPO 2006/2013 3000 -SN BKN007 BKN020 BECMG 2010/2013 34007KT

Weather observations and forecasts of more than 4000 airports (METAR and TAF reports).

The available stations are represented by yellow and red dots on the map.

Hover mouse over dot to see the name of the station.

Then click to see weather observations and forecasts.

To change the map : click on the green buttons with a black cross to zoom in, on the green button with a dash to zoom out, or on the green arrows for adjacent maps.


METAR-TAF: